Shirley Basin, Wyoming
Current Conditions -  °F | °C
As of 5:53 PM on Thursday 27 Nov 2014 (Local Time) from KCPR Reporting Station
Clear Clear  
Wind Chill: 38°   Ceiling: Unl
Heat Index: 45°   Visibility: 10mi
Dew Point: 26°   Wind: 16mph
Humidity: 48%   Direction: 230°SW
Pressure: 30.05"   Gusts: NA
Location:  42.85°N, 106.31°W
Report Text: KCPR 280053Z 23014KT 10SM CLR 07/M03 A3005 RMK AO2 SLP165 T00721033
Loading
Personal Weather Stations






























Interactive Weather Map New forecast layout! Learn more

10-Day Weather Forecast

Advertisements
Track Severe Weather on mobile